createdAt,value
2023-05-21T00:02:24.326Z,9.73
2023-05-21T00:04:52.349Z,9.57
2023-05-21T00:07:19.022Z,9.65
2023-05-21T00:09:45.800Z,9.02
2023-05-21T00:12:12.494Z,9.95
2023-05-21T00:14:39.172Z,9.65
2023-05-21T00:17:05.857Z,9.00
2023-05-21T00:19:32.587Z,9.18
2023-05-21T00:22:00.680Z,9.40
2023-05-21T00:24:27.334Z,9.23
2023-05-21T00:26:54.003Z,9.32
2023-05-21T00:29:20.637Z,8.30
2023-05-21T00:31:47.336Z,8.80
2023-05-21T00:34:14.093Z,9.13
2023-05-21T00:36:40.724Z,9.27
2023-05-21T00:39:08.730Z,9.65
2023-05-21T00:41:35.414Z,8.37
2023-05-21T00:44:02.033Z,9.27
2023-05-21T00:46:28.749Z,8.48
2023-05-21T00:48:55.960Z,8.80
2023-05-21T00:51:22.701Z,8.40
2023-05-21T00:53:50.708Z,8.47
2023-05-21T00:56:20.495Z,8.57
2023-05-21T00:58:47.296Z,9.50
2023-05-21T01:01:14.218Z,8.85
2023-05-21T01:03:41.172Z,9.07
2023-05-21T01:06:09.606Z,8.90
2023-05-21T01:08:37.264Z,9.23
2023-05-21T01:11:06.353Z,8.82
2023-05-21T01:13:37.536Z,8.48
2023-05-21T01:16:05.660Z,8.73
2023-05-21T01:18:32.677Z,9.00
2023-05-21T01:20:59.385Z,9.48
2023-05-21T01:23:27.680Z,9.05
2023-05-21T01:25:54.356Z,8.55
2023-05-21T01:28:21.056Z,8.48
2023-05-21T01:30:48.192Z,9.30
2023-05-21T01:33:19.596Z,8.07
2023-05-21T01:35:50.361Z,9.40
2023-05-21T01:38:21.527Z,8.45
2023-05-21T01:40:53.722Z,9.18
2023-05-21T01:43:20.891Z,8.87
2023-05-21T01:45:48.671Z,8.65
2023-05-21T01:48:16.644Z,8.70
2023-05-21T01:50:44.956Z,9.13
2023-05-21T01:53:11.703Z,9.05
2023-05-21T01:55:38.686Z,8.97
2023-05-21T01:58:06.879Z,8.60
2023-05-21T02:00:33.781Z,8.90
2023-05-21T02:03:00.603Z,9.30
2023-05-21T02:05:27.466Z,9.15
2023-05-21T02:07:54.419Z,8.47
2023-05-21T02:10:21.358Z,8.32
2023-05-21T02:12:48.018Z,8.55
2023-05-21T02:15:16.184Z,8.52
2023-05-21T02:17:42.890Z,8.93
2023-05-21T02:20:10.558Z,8.03
2023-05-21T02:22:37.683Z,8.40
2023-05-21T02:25:05.353Z,9.10
2023-05-21T02:27:31.994Z,8.85
2023-05-21T02:29:58.827Z,8.85
2023-05-21T02:32:26.906Z,8.07
2023-05-21T02:34:53.531Z,8.18
2023-05-21T02:37:21.837Z,8.52
2023-05-21T02:39:48.491Z,8.40
2023-05-21T02:42:15.161Z,8.75
2023-05-21T02:44:41.823Z,9.70
2023-05-21T02:47:08.456Z,9.25
2023-05-21T02:49:36.452Z,8.65
2023-05-21T02:52:03.273Z,7.63
2023-05-21T02:54:29.882Z,8.43
2023-05-21T02:56:56.561Z,8.30
2023-05-21T02:59:23.211Z,8.43
2023-05-21T03:01:49.976Z,9.18
2023-05-21T03:04:16.748Z,8.93
2023-05-21T03:06:44.845Z,8.25
2023-05-21T03:09:11.633Z,8.93
2023-05-21T03:11:38.252Z,8.68
2023-05-21T03:14:04.882Z,9.30
2023-05-21T03:16:31.599Z,8.75
2023-05-21T03:18:58.468Z,8.27
2023-05-21T03:21:25.209Z,9.10
2023-05-21T03:23:53.267Z,8.40
2023-05-21T03:26:19.938Z,8.65
2023-05-21T03:28:46.606Z,9.60
2023-05-21T03:31:13.206Z,8.75
2023-05-21T03:33:39.880Z,8.47
2023-05-21T03:36:06.963Z,8.55
2023-05-21T03:38:34.856Z,8.65
2023-05-21T03:41:04.143Z,8.80
2023-05-21T03:43:30.827Z,8.70
2023-05-21T03:45:57.499Z,9.70
2023-05-21T03:48:24.196Z,9.07
2023-05-21T03:50:51.031Z,9.38
2023-05-21T03:53:17.702Z,9.75
2023-05-21T03:55:44.436Z,9.43
2023-05-21T03:58:12.422Z,9.03
2023-05-21T04:00:39.109Z,8.93
2023-05-21T04:03:05.847Z,9.40
2023-05-21T04:05:32.823Z,9.48
2023-05-21T04:07:59.461Z,8.77
2023-05-21T04:10:26.669Z,9.00
2023-05-21T04:12:53.386Z,9.23
2023-05-21T04:15:21.759Z,10.30
2023-05-21T04:17:48.475Z,9.57
2023-05-21T04:20:15.219Z,8.65
2023-05-21T04:22:41.894Z,9.47
2023-05-21T04:25:09.035Z,9.00
2023-05-21T04:27:36.328Z,9.00
2023-05-21T04:30:04.230Z,8.70
2023-05-21T04:32:32.349Z,8.73
2023-05-21T04:35:01.321Z,8.40
2023-05-21T04:37:28.094Z,8.85
2023-05-21T04:39:54.978Z,9.20
2023-05-21T04:42:21.609Z,8.50
2023-05-21T04:44:48.266Z,8.95
2023-05-21T04:47:15.033Z,8.80
2023-05-21T04:49:43.911Z,8.88
2023-05-21T04:52:10.678Z,8.63
2023-05-21T04:54:37.421Z,9.23
2023-05-21T04:57:04.225Z,8.70
2023-05-21T04:59:30.862Z,9.10
2023-05-21T05:01:57.515Z,9.20
2023-05-21T05:04:24.216Z,8.48
2023-05-21T05:06:52.302Z,8.70
2023-05-21T05:09:19.052Z,8.25
2023-05-21T05:11:45.787Z,8.57
2023-05-21T05:14:12.454Z,8.55
2023-05-21T05:16:39.121Z,8.63
2023-05-21T05:19:05.894Z,8.07
2023-05-21T05:21:32.596Z,8.48
2023-05-21T05:24:00.856Z,8.30
2023-05-21T05:26:27.654Z,8.40
2023-05-21T05:28:54.313Z,7.72
2023-05-21T05:31:21.090Z,8.45
2023-05-21T05:33:48.557Z,8.50
2023-05-21T05:36:15.357Z,8.17
2023-05-21T05:38:41.968Z,8.43
2023-05-21T05:41:10.010Z,8.70
2023-05-21T05:43:36.702Z,8.57
2023-05-21T05:46:03.435Z,8.52
2023-05-21T05:48:30.175Z,7.77
2023-05-21T05:50:56.860Z,8.75
2023-05-21T05:53:23.582Z,8.95
2023-05-21T05:55:50.272Z,8.15
2023-05-21T05:58:18.611Z,8.55
2023-05-21T06:00:45.316Z,9.17
2023-05-21T06:03:12.166Z,8.35
2023-05-21T06:05:39.278Z,8.65
2023-05-21T06:08:06.138Z,8.65
2023-05-21T06:10:32.818Z,9.20
2023-05-21T06:12:59.432Z,7.77
2023-05-21T06:15:27.512Z,8.90
2023-05-21T06:17:54.268Z,8.98
2023-05-21T06:20:21.007Z,8.50
2023-05-21T06:22:47.649Z,8.57
2023-05-21T06:25:14.402Z,7.87
2023-05-21T06:27:41.026Z,7.95
2023-05-21T06:32:50.539Z,7.90
2023-05-21T06:35:17.319Z,8.05
2023-05-21T06:37:43.926Z,8.23
2023-05-21T06:40:10.942Z,8.07
2023-05-21T06:42:37.651Z,8.77
2023-05-21T06:45:05.103Z,8.18
2023-05-21T06:47:31.894Z,8.38
2023-05-21T06:50:00.303Z,8.17
2023-05-21T06:52:27.036Z,8.05
2023-05-21T06:54:53.700Z,8.02
2023-05-21T06:57:20.372Z,7.78
2023-05-21T06:59:47.054Z,8.45
2023-05-21T07:02:13.724Z,7.80
2023-05-21T07:04:40.447Z,8.38
2023-05-21T07:07:08.442Z,8.18
2023-05-21T07:09:35.100Z,7.85
2023-05-21T07:12:01.719Z,8.68
2023-05-21T07:14:28.446Z,8.10
2023-05-21T07:16:55.174Z,7.00
2023-05-21T07:19:21.907Z,8.48
2023-05-21T07:21:49.135Z,8.00
2023-05-21T07:24:17.130Z,8.02
2023-05-21T07:26:43.745Z,7.70
2023-05-21T07:29:10.423Z,7.95
2023-05-21T07:31:37.129Z,8.35
2023-05-21T07:34:03.857Z,8.20
2023-05-21T07:36:30.532Z,8.27
2023-05-21T07:38:57.230Z,7.57
2023-05-21T07:41:25.372Z,8.32
2023-05-21T07:43:52.063Z,7.35
2023-05-21T07:46:18.834Z,7.82
2023-05-21T07:48:45.496Z,7.53
2023-05-21T07:51:12.616Z,7.77
2023-05-21T07:53:39.255Z,7.80
2023-05-21T07:56:06.572Z,7.57
2023-05-21T07:58:34.739Z,7.95
2023-05-21T08:01:01.405Z,8.13
2023-05-21T08:03:29.677Z,7.40
2023-05-21T08:05:56.604Z,8.10
2023-05-21T08:08:23.638Z,8.32
2023-05-21T08:10:50.356Z,8.20
2023-05-21T08:13:17.106Z,8.32
2023-05-21T08:15:45.130Z,7.87
2023-05-21T08:18:12.028Z,8.25
2023-05-21T08:20:38.923Z,7.80
2023-05-21T08:23:05.602Z,7.93
2023-05-21T08:25:32.210Z,8.35
2023-05-21T08:27:58.919Z,8.60
2023-05-21T08:30:25.639Z,8.77
2023-05-21T08:32:53.798Z,8.35
2023-05-21T08:35:20.670Z,8.07
2023-05-21T08:37:47.505Z,7.90
2023-05-21T08:42:55.123Z,7.65
2023-05-21T08:45:22.922Z,8.68
2023-05-21T08:47:57.884Z,8.32
2023-05-21T08:50:27.416Z,7.65
2023-05-21T08:52:54.306Z,7.13
2023-05-21T08:55:21.499Z,7.55
2023-05-21T08:57:48.691Z,7.28
2023-05-21T09:00:16.235Z,7.40
2023-05-21T09:02:43.074Z,6.78
2023-05-21T09:05:13.197Z,7.10
2023-05-21T09:07:43.773Z,7.15
2023-05-21T09:10:14.074Z,7.47
2023-05-21T09:12:40.937Z,6.85
2023-05-21T09:15:08.604Z,8.25
2023-05-21T09:17:35.679Z,7.10
2023-05-21T09:20:07.845Z,7.07
2023-05-21T09:22:36.314Z,6.97
2023-05-21T09:25:06.137Z,6.55
2023-05-21T09:27:32.842Z,6.60
2023-05-21T09:29:59.487Z,7.13
2023-05-21T09:32:26.179Z,7.30
2023-05-21T09:34:52.928Z,7.38
2023-05-21T09:37:27.576Z,6.95
2023-05-21T09:39:56.150Z,7.38
2023-05-21T09:42:22.986Z,7.07
2023-05-21T09:44:49.755Z,7.20
2023-05-21T09:47:20.120Z,7.63
2023-05-21T09:49:46.897Z,7.07
2023-05-21T09:52:13.647Z,7.80
2023-05-21T09:54:40.444Z,6.57
2023-05-21T09:57:08.516Z,6.90
2023-05-21T09:59:39.101Z,7.78
2023-05-21T10:02:17.983Z,6.78
2023-05-21T10:04:51.423Z,6.75
2023-05-21T10:07:19.467Z,7.63
2023-05-21T10:09:47.515Z,7.10
2023-05-21T10:12:18.061Z,7.13
2023-05-21T10:14:49.907Z,6.88
2023-05-21T10:17:17.160Z,6.22
2023-05-21T10:19:44.619Z,6.37
2023-05-21T10:22:11.629Z,6.30
2023-05-21T10:24:40.075Z,6.82
2023-05-21T10:27:07.417Z,6.88
2023-05-21T10:29:38.068Z,7.20
2023-05-21T10:32:06.347Z,7.47
2023-05-21T10:34:33.854Z,6.82
2023-05-21T10:37:01.773Z,6.53
2023-05-21T10:39:30.399Z,6.50
2023-05-21T10:42:07.181Z,6.75
2023-05-21T10:44:44.302Z,6.70
2023-05-21T10:47:53.537Z,6.40
2023-05-21T10:50:45.576Z,6.60
2023-05-21T10:53:21.831Z,7.13
2023-05-21T10:55:59.205Z,7.05
2023-05-21T10:59:13.325Z,6.17
2023-05-21T11:01:42.097Z,6.28
2023-05-21T11:04:08.948Z,7.00
2023-05-21T11:06:35.638Z,6.95
2023-05-21T11:09:11.081Z,6.93
2023-05-21T11:11:42.447Z,6.90
2023-05-21T11:14:29.794Z,7.07
2023-05-21T11:16:58.021Z,6.30
2023-05-21T11:19:34.972Z,6.65
2023-05-21T11:22:04.848Z,6.82
2023-05-21T11:24:33.031Z,6.67
2023-05-21T11:27:01.628Z,6.70
2023-05-21T11:29:39.816Z,7.00
2023-05-21T11:32:09.233Z,6.72
2023-05-21T11:34:44.270Z,7.07
2023-05-21T11:37:28.311Z,6.87
2023-05-21T11:39:55.601Z,7.28
2023-05-21T11:42:33.189Z,6.97
2023-05-21T11:45:01.503Z,6.65
2023-05-21T11:47:30.164Z,7.20
2023-05-21T11:49:58.211Z,7.03
2023-05-21T11:52:24.888Z,6.40
2023-05-21T11:54:53.123Z,6.55
2023-05-21T11:57:19.985Z,6.45
2023-05-21T11:59:47.518Z,6.28
2023-05-21T12:02:15.095Z,6.70
2023-05-21T12:04:43.461Z,6.43
2023-05-21T12:09:51.938Z,6.55
2023-05-21T12:12:19.863Z,6.35
2023-05-21T12:14:47.696Z,5.90
2023-05-21T12:17:16.320Z,6.38
2023-05-21T12:19:45.963Z,6.95
2023-05-21T12:22:12.981Z,6.20
2023-05-21T12:24:39.845Z,7.10
2023-05-21T12:27:07.408Z,7.47
2023-05-21T12:29:34.717Z,7.28
2023-05-21T12:32:02.316Z,7.90
2023-05-21T12:34:40.198Z,7.72
2023-05-21T12:37:08.457Z,8.05
2023-05-21T12:39:38.479Z,7.70
2023-05-21T12:42:05.591Z,7.50
2023-05-21T12:44:33.166Z,7.70
2023-05-21T12:47:01.394Z,7.72
2023-05-21T12:49:32.719Z,7.45
2023-05-21T12:51:59.382Z,7.47
2023-05-21T12:54:32.128Z,7.35
2023-05-21T12:57:06.186Z,7.20
2023-05-21T12:59:46.715Z,6.82
2023-05-21T13:02:15.182Z,6.53
2023-05-21T13:04:42.119Z,6.93
2023-05-21T13:07:08.875Z,7.13
2023-05-21T13:09:37.045Z,7.05
2023-05-21T13:12:03.981Z,7.03
2023-05-21T13:14:30.675Z,7.15
2023-05-21T13:16:57.666Z,7.80
2023-05-21T13:19:24.405Z,6.95
2023-05-21T13:21:51.108Z,6.72
2023-05-21T13:24:17.778Z,7.03
2023-05-21T13:26:45.834Z,6.65
2023-05-21T13:29:12.561Z,6.67
2023-05-21T13:31:39.636Z,6.25
2023-05-21T13:34:06.318Z,6.90
2023-05-21T13:36:32.934Z,6.75
2023-05-21T13:38:59.727Z,6.20
2023-05-21T13:41:26.468Z,6.13
2023-05-21T13:43:54.635Z,5.47
2023-05-21T13:46:21.436Z,6.10
2023-05-21T13:48:48.115Z,6.60
2023-05-21T13:51:25.582Z,6.07
2023-05-21T13:54:01.704Z,6.13
2023-05-21T13:56:28.405Z,6.60
2023-05-21T13:58:56.466Z,7.00
2023-05-21T14:01:23.357Z,6.28
2023-05-21T14:03:50.131Z,6.57
2023-05-21T14:06:16.976Z,6.50
2023-05-21T14:08:43.736Z,6.32
2023-05-21T14:11:10.458Z,6.45
2023-05-21T14:13:37.156Z,6.28
2023-05-21T14:16:06.346Z,6.32
2023-05-21T14:18:33.025Z,6.63
2023-05-21T14:20:59.717Z,6.32
2023-05-21T14:23:26.459Z,6.82
2023-05-21T14:25:53.153Z,6.40
2023-05-21T14:28:19.799Z,5.90
2023-05-21T14:30:46.749Z,5.53
2023-05-21T14:33:14.932Z,6.50
2023-05-21T14:35:41.691Z,5.80
2023-05-21T14:38:08.378Z,5.70
2023-05-21T14:40:35.046Z,6.25
2023-05-21T14:43:02.166Z,5.40
2023-05-21T14:45:28.813Z,6.07
2023-05-21T14:47:55.502Z,6.20
2023-05-21T14:50:23.645Z,5.65
2023-05-21T14:52:50.270Z,6.32
2023-05-21T14:55:17.135Z,6.33
2023-05-21T14:57:43.936Z,6.05
2023-05-21T15:00:12.201Z,6.30
2023-05-21T15:02:39.129Z,6.03
2023-05-21T15:05:06.377Z,6.53
2023-05-21T15:07:34.890Z,6.20
2023-05-21T15:10:01.689Z,6.28
2023-05-21T15:12:28.408Z,6.68
2023-05-21T15:14:55.080Z,6.30
2023-05-21T15:17:21.943Z,6.35
2023-05-21T15:19:48.654Z,6.90
2023-05-21T15:22:15.458Z,6.00
2023-05-21T15:24:43.649Z,6.35
2023-05-21T15:27:10.671Z,6.22
2023-05-21T15:29:38.760Z,6.60
2023-05-21T15:32:06.093Z,6.73
2023-05-21T15:34:32.981Z,6.20
2023-05-21T15:36:59.880Z,5.82
2023-05-21T15:39:27.034Z,6.32
2023-05-21T15:41:55.626Z,6.25
2023-05-21T15:44:22.611Z,6.23
2023-05-21T15:46:49.340Z,6.15
2023-05-21T15:49:16.208Z,6.35
2023-05-21T15:51:42.929Z,6.28
2023-05-21T15:54:09.710Z,5.75
2023-05-21T15:56:36.825Z,6.70
2023-05-21T15:59:05.205Z,5.80
2023-05-21T16:01:32.359Z,5.78
2023-05-21T16:03:59.190Z,6.40
2023-05-21T16:06:25.977Z,5.80
2023-05-21T16:08:52.805Z,6.37
2023-05-21T16:11:19.676Z,5.88
2023-05-21T16:13:46.364Z,6.28
2023-05-21T16:16:14.563Z,6.05
2023-05-21T16:18:41.359Z,5.80
2023-05-21T16:21:08.393Z,5.80
2023-05-21T16:23:35.816Z,5.95
2023-05-21T16:26:02.511Z,5.85
2023-05-21T16:28:29.530Z,5.43
2023-05-21T16:30:56.367Z,5.82
2023-05-21T16:33:24.878Z,6.17
2023-05-21T16:35:51.756Z,6.55
2023-05-21T16:38:18.871Z,6.35
2023-05-21T16:40:45.902Z,5.85
2023-05-21T16:43:12.827Z,6.15
2023-05-21T16:45:40.412Z,6.40
2023-05-21T16:48:08.113Z,6.10
2023-05-21T16:50:36.594Z,6.10
2023-05-21T16:53:03.534Z,6.03
2023-05-21T16:55:32.180Z,6.40
2023-05-21T16:57:59.601Z,6.40
2023-05-21T17:00:26.284Z,6.40
2023-05-21T17:02:53.927Z,6.57
2023-05-21T17:05:20.960Z,6.50
2023-05-21T17:07:49.973Z,6.05
2023-05-21T17:10:17.045Z,5.93
2023-05-21T17:12:43.794Z,6.00
2023-05-21T17:15:10.747Z,6.10
2023-05-21T17:17:37.561Z,5.60
2023-05-21T17:20:05.292Z,6.10
2023-05-21T17:22:32.418Z,5.93
2023-05-21T17:25:00.598Z,6.03
2023-05-21T17:27:27.274Z,5.90
2023-05-21T17:29:54.009Z,6.32
2023-05-21T17:32:20.920Z,5.68
2023-05-21T17:34:47.891Z,5.47
2023-05-21T17:37:14.561Z,5.82
2023-05-21T17:39:41.551Z,6.40
2023-05-21T17:42:09.883Z,5.88
2023-05-21T17:44:36.586Z,5.60
2023-05-21T17:47:03.476Z,6.17
2023-05-21T17:49:30.336Z,6.28
2023-05-21T17:51:57.580Z,6.25
2023-05-21T17:54:24.247Z,5.80
2023-05-21T17:56:51.061Z,5.65
2023-05-21T17:59:19.212Z,6.00
2023-05-21T18:01:46.472Z,5.90
2023-05-21T18:04:13.418Z,6.18
2023-05-21T18:06:40.763Z,6.43
2023-05-21T18:09:07.701Z,6.55
2023-05-21T18:11:35.355Z,5.90
2023-05-21T18:14:02.230Z,6.10
2023-05-21T18:16:30.494Z,6.03
2023-05-21T18:18:57.457Z,6.53
2023-05-21T18:21:24.186Z,6.60
2023-05-21T18:23:51.207Z,6.03
2023-05-21T18:26:18.227Z,6.38
2023-05-21T18:28:46.730Z,6.60
2023-05-21T18:31:13.746Z,6.47
2023-05-21T18:33:41.813Z,6.05
2023-05-21T18:36:08.528Z,6.60
2023-05-21T18:38:35.288Z,6.15
2023-05-21T18:41:02.417Z,8.23
2023-05-21T18:43:29.088Z,6.95
2023-05-21T18:45:55.724Z,7.70
2023-05-21T18:48:22.483Z,6.57
2023-05-21T18:50:50.617Z,6.70
2023-05-21T18:53:17.301Z,6.45
2023-05-21T18:55:44.264Z,6.35
2023-05-21T18:58:11.007Z,6.25
2023-05-21T19:00:38.006Z,6.47
2023-05-21T19:03:05.007Z,6.75
2023-05-21T19:05:31.869Z,6.90
2023-05-21T19:08:00.113Z,6.88
2023-05-21T19:10:26.815Z,6.95
2023-05-21T19:12:53.802Z,6.23
2023-05-21T19:15:20.503Z,6.78
2023-05-21T19:17:47.554Z,6.38
2023-05-21T19:20:23.460Z,6.85
2023-05-21T19:22:50.656Z,7.07
2023-05-21T19:25:18.969Z,6.47
2023-05-21T19:27:45.713Z,6.45
2023-05-21T19:30:13.477Z,6.55
2023-05-21T19:32:40.272Z,7.05
2023-05-21T19:35:08.245Z,7.45
2023-05-21T19:37:35.179Z,7.00
2023-05-21T19:40:02.063Z,6.63
2023-05-21T19:42:30.404Z,6.28
2023-05-21T19:44:57.099Z,6.57
2023-05-21T19:47:23.860Z,6.30
2023-05-21T19:49:50.755Z,6.40
2023-05-21T19:52:17.527Z,7.22
2023-05-21T19:54:44.471Z,6.47
2023-05-21T19:57:12.499Z,7.35
2023-05-21T19:59:41.020Z,7.32
2023-05-21T20:02:11.452Z,6.97
2023-05-21T20:04:38.169Z,7.68
2023-05-21T20:07:05.788Z,6.70
2023-05-21T20:09:32.464Z,7.03
2023-05-21T20:11:59.150Z,6.82
2023-05-21T20:14:25.919Z,7.10
2023-05-21T20:16:54.057Z,6.75
2023-05-21T20:19:20.786Z,6.80
2023-05-21T20:21:47.544Z,7.57
2023-05-21T20:24:14.774Z,6.97
2023-05-21T20:26:41.562Z,7.03
2023-05-21T20:29:08.440Z,7.38
2023-05-21T20:31:35.442Z,7.20
2023-05-21T20:34:03.973Z,6.95
2023-05-21T20:36:30.756Z,7.53
2023-05-21T20:38:57.820Z,7.73
2023-05-21T20:41:25.042Z,7.57
2023-05-21T20:43:51.777Z,7.78
2023-05-21T20:46:18.682Z,7.50
2023-05-21T20:48:45.764Z,7.55
2023-05-21T20:51:14.075Z,7.40
2023-05-21T20:53:40.851Z,7.28
2023-05-21T20:56:08.536Z,7.78
2023-05-21T20:58:35.309Z,6.93
2023-05-21T21:01:02.711Z,7.18
2023-05-21T21:03:29.963Z,8.00
2023-05-21T21:05:57.195Z,7.72
2023-05-21T21:08:25.580Z,7.60
2023-05-21T21:10:52.369Z,7.05
2023-05-21T21:13:19.456Z,7.55
2023-05-21T21:15:46.391Z,6.90
2023-05-21T21:18:13.250Z,7.13
2023-05-21T21:20:40.632Z,7.45
2023-05-21T21:23:07.957Z,7.80
2023-05-21T21:25:36.550Z,6.57
2023-05-21T21:28:04.412Z,7.03
2023-05-21T21:30:31.133Z,6.38
2023-05-21T21:32:58.365Z,7.60
2023-05-21T21:35:25.600Z,7.40
2023-05-21T21:37:52.886Z,7.32
2023-05-21T21:40:19.886Z,6.63
2023-05-21T21:42:48.192Z,7.55
2023-05-21T21:45:14.943Z,7.03
2023-05-21T21:47:42.253Z,7.47
2023-05-21T21:50:10.067Z,7.18
2023-05-21T21:52:37.839Z,6.63
2023-05-21T21:55:06.378Z,7.13
2023-05-21T21:57:33.461Z,7.53
2023-05-21T22:00:02.511Z,7.00
2023-05-21T22:02:29.417Z,7.70
2023-05-21T22:04:56.351Z,8.13
2023-05-21T22:07:23.238Z,7.75
2023-05-21T22:09:49.969Z,7.63
2023-05-21T22:12:17.312Z,8.10
2023-05-21T22:14:44.138Z,8.02
2023-05-21T22:17:12.337Z,6.70
2023-05-21T22:19:39.060Z,7.95
2023-05-21T22:22:06.100Z,7.88
2023-05-21T22:24:33.472Z,7.45
2023-05-21T22:27:00.278Z,8.00
2023-05-21T22:29:27.438Z,7.40
2023-05-21T22:31:54.154Z,6.90
2023-05-21T22:34:22.271Z,8.13
2023-05-21T22:36:49.017Z,7.63
2023-05-21T22:39:15.764Z,7.57
2023-05-21T22:41:42.437Z,7.07
2023-05-21T22:44:09.613Z,7.65
2023-05-21T22:46:36.341Z,7.15
2023-05-21T22:49:03.235Z,7.35
2023-05-21T22:51:31.388Z,7.70
2023-05-21T22:53:58.138Z,7.17
2023-05-21T22:56:24.843Z,7.65
2023-05-21T22:58:51.588Z,7.53
2023-05-21T23:01:18.464Z,7.43
2023-05-21T23:03:45.104Z,7.80
2023-05-21T23:06:12.010Z,7.57
2023-05-21T23:08:40.160Z,6.88
2023-05-21T23:11:06.905Z,7.28
2023-05-21T23:13:33.634Z,7.05
2023-05-21T23:16:00.439Z,7.40
2023-05-21T23:18:27.121Z,6.83
2023-05-21T23:20:53.893Z,7.07
2023-05-21T23:23:20.710Z,7.68
2023-05-21T23:25:48.897Z,7.63
2023-05-21T23:28:15.681Z,7.90
2023-05-21T23:30:42.377Z,7.77
2023-05-21T23:33:09.122Z,7.78
2023-05-21T23:35:35.929Z,8.38
2023-05-21T23:38:02.852Z,7.40
2023-05-21T23:40:29.548Z,7.30
2023-05-21T23:42:57.955Z,8.07
2023-05-21T23:45:24.718Z,8.23
2023-05-21T23:47:52.270Z,8.93
2023-05-21T23:50:19.334Z,8.23
2023-05-21T23:52:46.287Z,8.25
2023-05-21T23:55:13.085Z,8.53
2023-05-21T23:57:39.847Z,7.95
